sensor_id;sensor_type;location;lat;lon;timestamp;P1;durP1;ratioP1;P2;durP2;ratioP2
7585;SDS011;12459;42.646;23.292;2023-05-19T00:12:57;10.23;;;9.63;;
7585;SDS011;12459;42.646;23.292;2023-05-19T00:27:59;10.67;;;10.07;;
7585;SDS011;12459;42.646;23.292;2023-05-19T00:43:01;10.60;;;10.00;;
7585;SDS011;12459;42.646;23.292;2023-05-19T00:58:03;10.27;;;9.67;;
7585;SDS011;12459;42.646;23.292;2023-05-19T01:43:15;9.57;;;9.07;;
7585;SDS011;12459;42.646;23.292;2023-05-19T02:13:21;9.40;;;8.90;;
7585;SDS011;12459;42.646;23.292;2023-05-19T02:28:29;9.63;;;9.13;;
7585;SDS011;12459;42.646;23.292;2023-05-19T02:43:31;10.13;;;9.53;;
7585;SDS011;12459;42.646;23.292;2023-05-19T02:58:33;10.73;;;10.13;;
7585;SDS011;12459;42.646;23.292;2023-05-19T03:13:35;9.63;;;9.13;;
7585;SDS011;12459;42.646;23.292;2023-05-19T03:28:37;10.33;;;9.77;;
7585;SDS011;12459;42.646;23.292;2023-05-19T03:43:38;9.83;;;9.33;;
7585;SDS011;12459;42.646;23.292;2023-05-19T03:58:40;9.33;;;8.83;;
7585;SDS011;12459;42.646;23.292;2023-05-19T04:13:43;10.97;;;10.37;;
7585;SDS011;12459;42.646;23.292;2023-05-19T04:28:45;10.73;;;10.13;;
7585;SDS011;12459;42.646;23.292;2023-05-19T04:43:48;11.70;;;11.10;;
7585;SDS011;12459;42.646;23.292;2023-05-19T04:58:50;11.73;;;11.13;;
7585;SDS011;12459;42.646;23.292;2023-05-19T05:13:54;12.97;;;12.27;;
7585;SDS011;12459;42.646;23.292;2023-05-19T05:28:58;12.20;;;11.60;;
7585;SDS011;12459;42.646;23.292;2023-05-19T05:44:00;14.23;;;13.53;;
7585;SDS011;12459;42.646;23.292;2023-05-19T05:59:02;16.37;;;15.57;;
7585;SDS011;12459;42.646;23.292;2023-05-19T06:14:04;17.17;;;16.30;;
7585;SDS011;12459;42.646;23.292;2023-05-19T06:29:06;18.60;;;17.70;;
7585;SDS011;12459;42.646;23.292;2023-05-19T06:44:08;18.63;;;17.73;;
7585;SDS011;12459;42.646;23.292;2023-05-19T06:59:10;20.73;;;19.73;;
7585;SDS011;12459;42.646;23.292;2023-05-19T07:14:12;17.77;;;16.87;;
7585;SDS011;12459;42.646;23.292;2023-05-19T07:29:13;16.83;;;16.03;;
7585;SDS011;12459;42.646;23.292;2023-05-19T07:44:15;18.97;;;18.07;;
7585;SDS011;12459;42.646;23.292;2023-05-19T07:59:17;17.73;;;16.83;;
7585;SDS011;12459;42.646;23.292;2023-05-19T08:14:18;21.83;;;20.73;;
7585;SDS011;12459;42.646;23.292;2023-05-19T08:29:23;20.57;;;19.57;;
7585;SDS011;12459;42.646;23.292;2023-05-19T08:44:24;21.20;;;20.20;;
7585;SDS011;12459;42.646;23.292;2023-05-19T08:59:26;22.17;;;21.07;;
7585;SDS011;12459;42.646;23.292;2023-05-19T09:14:29;26.23;;;25.00;;
7585;SDS011;12459;42.646;23.292;2023-05-19T09:29:31;24.03;;;22.90;;
7585;SDS011;12459;42.646;23.292;2023-05-19T09:44:33;20.77;;;19.77;;
7585;SDS011;12459;42.646;23.292;2023-05-19T09:59:35;23.10;;;22.00;;
7585;SDS011;12459;42.646;23.292;2023-05-19T10:14:39;25.33;;;24.13;;
7585;SDS011;12459;42.646;23.292;2023-05-19T10:29:41;26.47;;;25.20;;
7585;SDS011;12459;42.646;23.292;2023-05-19T10:44:56;28.43;;;27.13;;
7585;SDS011;12459;42.646;23.292;2023-05-19T11:00:28;27.80;;;26.50;;
7585;SDS011;12459;42.646;23.292;2023-05-19T11:15:34;29.40;;;28.00;;
7585;SDS011;12459;42.646;23.292;2023-05-19T11:30:38;30.30;;;28.90;;
7585;SDS011;12459;42.646;23.292;2023-05-19T11:45:41;27.83;;;26.53;;
7585;SDS011;12459;42.646;23.292;2023-05-19T12:00:43;24.83;;;23.63;;
7585;SDS011;12459;42.646;23.292;2023-05-19T12:15:49;21.87;;;20.80;;
7585;SDS011;12459;42.646;23.292;2023-05-19T12:30:52;18.00;;;17.10;;
7585;SDS011;12459;42.646;23.292;2023-05-19T12:45:54;17.90;;;17.00;;
7585;SDS011;12459;42.646;23.292;2023-05-19T13:00:57;19.20;;;18.27;;
7585;SDS011;12459;42.646;23.292;2023-05-19T13:16:00;19.07;;;18.17;;
7585;SDS011;12459;42.646;23.292;2023-05-19T13:31:02;20.03;;;19.03;;
7585;SDS011;12459;42.646;23.292;2023-05-19T13:46:04;18.87;;;17.97;;
7585;SDS011;12459;42.646;23.292;2023-05-19T14:01:06;19.77;;;18.77;;
7585;SDS011;12459;42.646;23.292;2023-05-19T14:16:08;20.40;;;19.40;;
7585;SDS011;12459;42.646;23.292;2023-05-19T14:31:10;18.10;;;17.20;;
7585;SDS011;12459;42.646;23.292;2023-05-19T14:46:13;20.03;;;19.03;;
7585;SDS011;12459;42.646;23.292;2023-05-19T15:01:15;22.37;;;21.27;;
7585;SDS011;12459;42.646;23.292;2023-05-19T15:16:16;22.00;;;20.90;;
7585;SDS011;12459;42.646;23.292;2023-05-19T15:31:18;22.17;;;21.07;;
7585;SDS011;12459;42.646;23.292;2023-05-19T15:46:20;22.03;;;20.93;;
7585;SDS011;12459;42.646;23.292;2023-05-19T16:01:23;22.40;;;21.30;;
7585;SDS011;12459;42.646;23.292;2023-05-19T16:16:25;22.23;;;21.13;;
7585;SDS011;12459;42.646;23.292;2023-05-19T16:31:27;20.83;;;19.83;;
7585;SDS011;12459;42.646;23.292;2023-05-19T16:46:29;20.23;;;19.23;;
7585;SDS011;12459;42.646;23.292;2023-05-19T17:01:31;18.23;;;17.33;;
7585;SDS011;12459;42.646;23.292;2023-05-19T17:16:34;18.70;;;17.80;;
7585;SDS011;12459;42.646;23.292;2023-05-19T17:31:36;20.80;;;19.80;;
7585;SDS011;12459;42.646;23.292;2023-05-19T17:46:37;16.70;;;15.90;;
7585;SDS011;12459;42.646;23.292;2023-05-19T18:01:39;16.57;;;15.77;;
7585;SDS011;12459;42.646;23.292;2023-05-19T18:16:42;18.27;;;17.37;;
7585;SDS011;12459;42.646;23.292;2023-05-19T18:31:44;16.63;;;15.83;;
7585;SDS011;12459;42.646;23.292;2023-05-19T18:46:46;17.00;;;16.13;;
7585;SDS011;12459;42.646;23.292;2023-05-19T19:01:47;17.13;;;16.27;;
7585;SDS011;12459;42.646;23.292;2023-05-19T19:16:49;16.37;;;15.57;;
7585;SDS011;12459;42.646;23.292;2023-05-19T19:31:54;14.77;;;14.00;;
7585;SDS011;12459;42.646;23.292;2023-05-19T19:46:55;16.50;;;15.70;;
7585;SDS011;12459;42.646;23.292;2023-05-19T20:01:57;17.97;;;17.07;;
7585;SDS011;12459;42.646;23.292;2023-05-19T20:16:59;14.57;;;13.87;;
7585;SDS011;12459;42.646;23.292;2023-05-19T20:47:02;15.13;;;14.33;;
7585;SDS011;12459;42.646;23.292;2023-05-19T21:02:04;13.60;;;12.90;;
7585;SDS011;12459;42.646;23.292;2023-05-19T21:17:07;15.10;;;14.30;;
7585;SDS011;12459;42.646;23.292;2023-05-19T21:32:10;13.87;;;13.17;;
7585;SDS011;12459;42.646;23.292;2023-05-19T21:47:11;12.70;;;12.00;;
7585;SDS011;12459;42.646;23.292;2023-05-19T22:02:13;14.10;;;13.40;;
7585;SDS011;12459;42.646;23.292;2023-05-19T22:17:16;12.97;;;12.27;;
7585;SDS011;12459;42.646;23.292;2023-05-19T22:32:17;12.17;;;11.53;;
7585;SDS011;12459;42.646;23.292;2023-05-19T22:47:19;13.67;;;12.97;;
7585;SDS011;12459;42.646;23.292;2023-05-19T23:02:21;10.27;;;9.67;;
7585;SDS011;12459;42.646;23.292;2023-05-19T23:17:23;10.90;;;10.30;;
7585;SDS011;12459;42.646;23.292;2023-05-19T23:32:25;11.50;;;10.90;;
7585;SDS011;12459;42.646;23.292;2023-05-19T23:47:27;13.03;;;12.33;;
